Time;durP1;ratioP1;P1;durP2;ratioP2;P2;SDS_P1;SDS_P2;PMS_P1;PMS_P2;Temp;Humidity;BMP_temperature;BMP_pressure;BME280_temperature;BME280_humidity;BME280_pressure;Samples;Min_cycle;Max_cycle;Signal;HPM_P1;HPM_P2
2021/02/04 00:03:12;;;;;;;5.5;3.7;;;;;;;7.17;79.91504;97196.14;;;;
2021/02/04 00:13:11;;;;;;;7.3;4.1;;;;;;;7.14;79.18262;97191.42;;;;
2021/02/04 00:23:09;;;;;;;4.7;3.8;;;;;;;7.09;79.0293;97189.69;;;;
2021/02/04 00:33:07;;;;;;;8.4;4.5;;;;;;;7.01;79.23828;97222.63;;;;
2021/02/04 00:43:09;;;;;;;9.8;4.6;;;;;;;7.18;78.67676;97232.55;;;;
2021/02/04 00:53:04;;;;;;;10.3;6.2;;;;;;;7.21;78.56934;97242.63;;;;
2021/02/04 01:03:03;;;;;;;7.3;5.4;;;;;;;7.14;78.17578;97204.82;;;;
2021/02/04 01:13:01;;;;;;;6.5;5.1;;;;;;;7.05;77.72461;97210.18;;;;
2021/02/04 01:23:00;;;;;;;4.7;2.8;;;;;;;7.04;77.65527;97192.55;;;;
2021/02/04 01:32:58;;;;;;;5.6;3.9;;;;;;;7.02;78.13281;97208.14;;;;
2021/02/04 01:42:57;;;;;;;6.2;4.1;;;;;;;6.82;78.55566;97203.44;;;;
2021/02/04 01:52:55;;;;;;;8.1;5.9;;;;;;;6.69;78.77734;97182.98;;;;
2021/02/04 02:02:53;;;;;;;5.8;3.4;;;;;;;6.74;78.22656;97165.95;;;;
2021/02/04 02:12:52;;;;;;;5.4;3.2;;;;;;;6.69;78.25195;97164.25;;;;
2021/02/04 02:22:50;;;;;;;11.1;5;;;;;;;6.75;78.25;97146.91;;;;
2021/02/04 02:32:49;;;;;;;4.8;3;;;;;;;7.02;77.5625;97149.21;;;;
2021/02/04 02:42:47;;;;;;;7.2;3.5;;;;;;;7.43;76.73828;97143.23;;;;
2021/02/04 02:52:46;;;;;;;8.3;2.9;;;;;;;7.48;79.30078;97171.77;;;;
2021/02/04 03:02:44;;;;;;;7.2;3.9;;;;;;;7.07;84.36816;97157.09;;;;
2021/02/04 03:12:43;;;;;;;6.7;3.8;;;;;;;6.83;85.91504;97175.57;;;;
2021/02/04 03:22:42;;;;;;;6.1;4.2;;;;;;;6.71;87.40625;97169.27;;;;
2021/02/04 03:32:42;;;;;;;5;3;;;;;;;6.58;88.21875;97153.08;;;;
2021/02/04 03:42:38;;;;;;;5.5;3.8;;;;;;;6.54;87.96289;97143.3;;;;
2021/02/04 03:52:36;;;;;;;6.5;3.9;;;;;;;6.52;88.40625;97167.73;;;;
2021/02/04 04:02:35;;;;;;;8.5;5.5;;;;;;;6.59;88.41895;97175.28;;;;
2021/02/04 04:12:34;;;;;;;8.7;3.3;;;;;;;6.62;88.12402;97165.82;;;;
2021/02/04 04:22:32;;;;;;;3.6;1.6;;;;;;;6.67;88.42383;97168.32;;;;
2021/02/04 04:32:30;;;;;;;5;2.6;;;;;;;6.63;88.72852;97157.45;;;;
2021/02/04 04:42:29;;;;;;;4.1;2.7;;;;;;;6.52;88.69434;97150.88;;;;
2021/02/04 04:52:27;;;;;;;10.7;8.9;;;;;;;6.6;87.94336;97168.8;;;;
2021/02/04 05:02:25;;;;;;;7.1;3.5;;;;;;;6.82;86.27148;97165.95;;;;
2021/02/04 05:12:24;;;;;;;4.5;2.9;;;;;;;7.03;83.44336;97161.51;;;;
2021/02/04 05:22:23;;;;;;;3;1.3;;;;;;;7.75;77.79199;97176.69;;;;
2021/02/04 05:32:21;;;;;;;3.7;1.4;;;;;;;8;76.35645;97169.61;;;;
2021/02/04 05:42:19;;;;;;;2.9;1.5;;;;;;;8;76.50391;97178.45;;;;
2021/02/04 05:52:18;;;;;;;4.5;1.8;;;;;;;8.27;73.88867;97185.22;;;;
2021/02/04 06:02:17;;;;;;;4.3;2.1;;;;;;;8.42;72.99414;97206.16;;;;
2021/02/04 06:12:15;;;;;;;4.6;2.4;;;;;;;8.48;72.35156;97237.06;;;;
2021/02/04 06:22:14;;;;;;;4;1.6;;;;;;;8.47;72.11523;97248.9;;;;
2021/02/04 06:32:13;;;;;;;4.3;2;;;;;;;8.39;72.50488;97240.92;;;;
2021/02/04 06:42:11;;;;;;;3.9;1.8;;;;;;;8.29;73.39941;97281.56;;;;
2021/02/04 06:52:10;;;;;;;8.7;2.3;;;;;;;8.14;74.82129;97287.44;;;;
2021/02/04 07:02:08;;;;;;;3;1.3;;;;;;;8.19;74.30176;97295.31;;;;
2021/02/04 07:12:10;;;;;;;4.3;2.2;;;;;;;8.09;76.01465;97329.44;;;;
2021/02/04 07:22:06;;;;;;;4.8;2.7;;;;;;;7.65;81.43652;97386.2;;;;
2021/02/04 07:32:04;;;;;;;3.9;2;;;;;;;7.46;80.16895;97364.31;;;;
2021/02/04 07:42:03;;;;;;;3.4;1.9;;;;;;;7.32;79.76367;97452.13;;;;
2021/02/04 07:52:01;;;;;;;4.2;2.2;;;;;;;6.7;84.5293;97495.1;;;;
2021/02/04 08:02:00;;;;;;;5.8;4;;;;;;;6.35;86.25586;97520.9;;;;
2021/02/04 08:11:58;;;;;;;8.1;3.3;;;;;;;6.34;82.96387;97537.28;;;;
2021/02/04 08:21:56;;;;;;;3.9;2.5;;;;;;;6.48;79.69824;97575.47;;;;
2021/02/04 08:31:55;;;;;;;4.9;2.3;;;;;;;6.46;77.04785;97612.44;;;;
2021/02/04 08:41:53;;;;;;;5.4;2.5;;;;;;;6.43;77.15527;97645.16;;;;
2021/02/04 08:51:52;;;;;;;5.5;2.8;;;;;;;6.26;78.50977;97691.3;;;;
2021/02/04 09:01:50;;;;;;;4.8;2.7;;;;;;;6.18;79.04004;97736.72;;;;
2021/02/04 09:11:48;;;;;;;4.1;2.5;;;;;;;6.03;79.32617;97775.26;;;;
2021/02/04 09:21:47;;;;;;;6.9;3.9;;;;;;;5.95;80.08105;97810.71;;;;
2021/02/04 09:31:53;;;;;;;5.8;2.2;;;;;;;5.76;79.51172;97829.45;;;;
2021/02/04 09:41:44;;;;;;;5.6;2.5;;;;;;;5.69;79.97559;97884.42;;;;
2021/02/04 09:51:43;;;;;;;3.7;2.6;;;;;;;5.56;80.49902;97918.02;;;;
2021/02/04 10:01:44;;;;;;;5.9;3.6;;;;;;;5.51;80.87988;97944.83;;;;
2021/02/04 10:11:39;;;;;;;5.7;2.9;;;;;;;5.44;81.27734;97973.8;;;;
2021/02/04 10:21:37;;;;;;;7;3.9;;;;;;;5.45;81.29297;98000.22;;;;
2021/02/04 10:31:35;;;;;;;8.8;3.7;;;;;;;5.43;81.19922;98014.95;;;;
2021/02/04 10:41:34;;;;;;;6.8;3.5;;;;;;;5.37;81.95605;98029.47;;;;
2021/02/04 10:51:32;;;;;;;9.8;6.3;;;;;;;5.27;82.79395;98061.66;;;;
2021/02/04 11:01:30;;;;;;;7.1;3.6;;;;;;;5.23;82.93945;98084.68;;;;
2021/02/04 11:11:29;;;;;;;10.5;6;;;;;;;5.24;83.17578;98112.99;;;;
2021/02/04 11:21:27;;;;;;;8.8;4.8;;;;;;;5.26;82.75684;98121.51;;;;
2021/02/04 11:31:25;;;;;;;8.1;5.3;;;;;;;5.11;82.49414;98135.02;;;;
2021/02/04 11:41:24;;;;;;;7.2;4.2;;;;;;;5.16;83.50586;98142.98;;;;
2021/02/04 11:51:22;;;;;;;15.1;5.3;;;;;;;5.2;83.41211;98168.06;;;;
2021/02/04 12:01:20;;;;;;;9;6.2;;;;;;;4.9;85.2998;98169.13;;;;
2021/02/04 12:11:18;;;;;;;7.2;5.6;;;;;;;4.83;85.40723;98188.14;;;;
2021/02/04 12:21:17;;;;;;;13.3;8.4;;;;;;;4.77;84.6084;98205.28;;;;
2021/02/04 12:31:15;;;;;;;9.6;6.7;;;;;;;4.83;84.65234;98217.52;;;;
2021/02/04 12:41:13;;;;;;;11;7;;;;;;;5.04;83.34961;98234.97;;;;
2021/02/04 12:51:11;;;;;;;8.8;5.3;;;;;;;4.96;81.63281;98254.25;;;;
2021/02/04 13:01:10;;;;;;;9;6;;;;;;;4.88;82.3291;98267.41;;;;
2021/02/04 13:11:08;;;;;;;7.6;5.6;;;;;;;4.57;83.81348;98282.83;;;;
2021/02/04 13:21:06;;;;;;;9.5;7;;;;;;;4.54;84.46289;98297.53;;;;
2021/02/04 13:31:05;;;;;;;9;8;;;;;;;4.53;84.62793;98308.47;;;;
2021/02/04 13:41:03;;;;;;;12.8;6.8;;;;;;;4.3;85.73633;98335.8;;;;
2021/02/04 13:51:01;;;;;;;9.5;6.7;;;;;;;4.29;86.74316;98353.66;;;;
2021/02/04 14:00:59;;;;;;;14.6;10.3;;;;;;;4.19;87.41016;98367.03;;;;
2021/02/04 14:10:58;;;;;;;15.4;9;;;;;;;4.12;87.83887;98387.86;;;;
2021/02/04 14:20:56;;;;;;;11.1;8.7;;;;;;;3.85;89.01367;98400.7;;;;
2021/02/04 14:30:55;;;;;;;17.3;11;;;;;;;3.79;89.58691;98415.08;;;;
2021/02/04 14:40:52;;;;;;;18.8;16.8;;;;;;;3.74;89.84277;98429.23;;;;
2021/02/04 14:50:50;;;;;;;20.3;12.4;;;;;;;3.7;89.85547;98449.47;;;;
2021/02/04 15:00:48;;;;;;;16;13;;;;;;;3.65;89.99902;98477.97;;;;
2021/02/04 15:10:46;;;;;;;14.9;10;;;;;;;3.58;89.71875;98496.08;;;;
2021/02/04 15:20:47;;;;;;;22.6;13.2;;;;;;;3.42;90.15039;98500.59;;;;
2021/02/04 15:30:49;;;;;;;14.4;11.4;;;;;;;3.28;89.95605;98516.27;;;;
2021/02/04 15:40:45;;;;;;;13.4;11.3;;;;;;;3.25;89.70801;98534.63;;;;
2021/02/04 15:50:39;;;;;;;14;8.8;;;;;;;3.19;89.36328;98549.8;;;;
2021/02/04 16:00:37;;;;;;;13.4;9.7;;;;;;;3.16;89.27832;98565.5;;;;
2021/02/04 16:10:35;;;;;;;13;11.1;;;;;;;3.14;89.56152;98570.27;;;;
2021/02/04 16:20:33;;;;;;;16.6;12.8;;;;;;;3;90.15039;98599.22;;;;
2021/02/04 16:30:31;;;;;;;18.5;14.2;;;;;;;2.94;89.97363;98598.41;;;;
2021/02/04 16:40:29;;;;;;;17.8;13.4;;;;;;;3.01;89.8584;98620.27;;;;
2021/02/04 16:50:27;;;;;;;15.7;13;;;;;;;2.95;90.14258;98642.57;;;;
2021/02/04 17:00:25;;;;;;;20.3;13.6;;;;;;;2.89;90.15234;98662.23;;;;
2021/02/04 17:10:23;;;;;;;21.5;17.2;;;;;;;2.88;90.47949;98673.16;;;;
2021/02/04 17:20:21;;;;;;;21.6;16.5;;;;;;;2.88;90.49219;98687.24;;;;
2021/02/04 17:30:19;;;;;;;21.5;17.9;;;;;;;2.85;91.24609;98690.41;;;;
2021/02/04 17:40:17;;;;;;;23.3;17.1;;;;;;;2.85;90.81543;98708.23;;;;
2021/02/04 17:50:16;;;;;;;21;15.7;;;;;;;2.86;90.58594;98729.3;;;;
2021/02/04 18:00:13;;;;;;;24.1;21.5;;;;;;;2.77;91.05273;98725.5;;;;
2021/02/04 18:10:11;;;;;;;32.8;26.9;;;;;;;2.77;91.00879;98736.14;;;;
2021/02/04 18:20:09;;;;;;;22.2;19.9;;;;;;;2.74;90.82617;98744.61;;;;
2021/02/04 18:30:08;;;;;;;22.4;18;;;;;;;2.67;90.66797;98746.7;;;;
2021/02/04 18:40:06;;;;;;;24.9;19.7;;;;;;;2.59;90.4082;98760.45;;;;
2021/02/04 18:50:04;;;;;;;25.6;19.8;;;;;;;2.64;90.17676;98763.14;;;;
2021/02/04 19:00:02;;;;;;;34;23.5;;;;;;;2.61;90.14746;98774.3;;;;
2021/02/04 19:09:59;;;;;;;27.4;20.5;;;;;;;2.59;90.22949;98772.95;;;;
2021/02/04 19:19:57;;;;;;;35.4;28.2;;;;;;;2.66;89.87012;98784.19;;;;
2021/02/04 19:29:55;;;;;;;27.9;23.2;;;;;;;2.67;89.84082;98797.26;;;;
2021/02/04 19:39:53;;;;;;;32;25.8;;;;;;;2.57;89.5;98791.8;;;;
2021/02/04 19:49:51;;;;;;;31.3;24.2;;;;;;;2.48;88.68555;98793.31;;;;
2021/02/04 19:59:56;;;;;;;29.2;25.6;;;;;;;2.41;88.5293;98811.33;;;;
2021/02/04 20:09:50;;;;;;;31.9;26.2;;;;;;;2.24;88.62598;98814.06;;;;
2021/02/04 20:19:46;;;;;;;28.9;23.9;;;;;;;2.1;89.00488;98819.99;;;;
2021/02/04 20:29:46;;;;;;;32.6;28;;;;;;;1.93;89.7627;98828.02;;;;
2021/02/04 20:39:49;;;;;;;37.9;27;;;;;;;1.84;89.75293;98813.55;;;;
2021/02/04 20:49:39;;;;;;;31.2;23.7;;;;;;;1.85;89.79004;98810.64;;;;
2021/02/04 20:59:37;;;;;;;33.2;26.6;;;;;;;1.81;89.73633;98809.52;;;;
2021/02/04 21:09:35;;;;;;;26;23.2;;;;;;;1.75;89.69238;98821.13;;;;
2021/02/04 21:19:33;;;;;;;29.7;20.4;;;;;;;1.71;89.02246;98825.31;;;;
2021/02/04 21:29:31;;;;;;;59.8;38.5;;;;;;;1.8;89.25195;98826.53;;;;
2021/02/04 21:39:29;;;;;;;60.3;40.1;;;;;;;1.77;89.0791;98821.67;;;;
2021/02/04 21:49:26;;;;;;;41.2;32.2;;;;;;;1.26;89.06152;98828.09;;;;
2021/02/04 21:59:24;;;;;;;34.5;27.6;;;;;;;1.29;88.50586;98842.72;;;;
2021/02/04 22:09:22;;;;;;;43.2;33.2;;;;;;;0.93;89.25879;98839.5;;;;
2021/02/04 22:19:20;;;;;;;39.6;29;;;;;;;0.6;89.84668;98865.92;;;;
2021/02/04 22:29:18;;;;;;;40.1;34.5;;;;;;;0.49;90.03516;98886.13;;;;
2021/02/04 22:39:16;;;;;;;49.3;37.1;;;;;;;0.37;90.85156;98881.91;;;;
2021/02/04 22:49:13;;;;;;;51;35.1;;;;;;;0.45;90.97949;98882.33;;;;
2021/02/04 22:59:11;;;;;;;37.6;29.3;;;;;;;0.5;90.66016;98892.25;;;;
2021/02/04 23:09:09;;;;;;;43.7;34.6;;;;;;;0.5;90.46289;98900.2;;;;
2021/02/04 23:19:07;;;;;;;42.5;33.1;;;;;;;0.47;90.3916;98898.02;;;;
2021/02/04 23:29:05;;;;;;;41.1;33.2;;;;;;;0.43;90.7334;98899.52;;;;
2021/02/04 23:39:02;;;;;;;54.7;39.1;;;;;;;0.27;91.0498;98889.66;;;;
2021/02/04 23:49:00;;;;;;;48.2;37.8;;;;;;;0.21;91.2666;98890.59;;;;
2021/02/04 23:58:58;;;;;;;46.2;37.9;;;;;;;0.25;90.93652;98897.02;;;;
